createdAt,value
2022-09-09T00:03:16.707Z,10.10
2022-09-09T00:20:14.040Z,13.00
2022-09-09T00:37:02.288Z,10.10
2022-09-09T00:54:12.113Z,13.60
2022-09-09T01:11:01.503Z,10.40
2022-09-09T01:27:53.300Z,10.60
2022-09-09T01:44:42.469Z,9.50
2022-09-09T02:01:43.941Z,12.20
2022-09-09T02:18:37.756Z,11.30
2022-09-09T02:35:29.671Z,14.30
2022-09-09T02:52:21.264Z,13.90
2022-09-09T03:09:11.665Z,10.30
2022-09-09T03:25:59.933Z,11.20
2022-09-09T03:42:47.874Z,12.50
2022-09-09T03:59:36.346Z,10.00
2022-09-09T04:16:24.417Z,9.90
2022-09-09T04:33:13.113Z,9.20
2022-09-09T04:50:01.859Z,7.10
2022-09-09T05:06:49.724Z,5.70
2022-09-09T05:23:38.112Z,5.90
2022-09-09T05:40:26.267Z,6.10
2022-09-09T05:57:14.474Z,6.00
2022-09-09T06:14:03.097Z,6.00
2022-09-09T06:30:59.815Z,6.90
2022-09-09T06:47:47.762Z,6.40
2022-09-09T07:04:35.850Z,7.40
2022-09-09T07:21:24.298Z,7.40
2022-09-09T07:38:12.400Z,8.90
2022-09-09T07:55:01.667Z,9.80
2022-09-09T08:11:50.832Z,55.60
2022-09-09T08:28:38.901Z,11.00
2022-09-09T08:45:36.969Z,11.10
2022-09-09T09:02:35.700Z,13.90
2022-09-09T09:19:27.387Z,14.40
2022-09-09T09:36:59.011Z,17.10
2022-09-09T09:53:54.094Z,16.20
2022-09-09T10:11:06.020Z,20.10
2022-09-09T10:28:20.655Z,18.30
2022-09-09T10:45:20.095Z,21.50
2022-09-09T11:02:20.940Z,22.80
2022-09-09T11:19:23.154Z,25.70
2022-09-09T11:36:28.259Z,28.10
2022-09-09T11:53:27.782Z,27.40
2022-09-09T12:10:30.980Z,30.30
2022-09-09T12:27:27.264Z,33.50
2022-09-09T12:44:16.535Z,33.80
2022-09-09T13:01:07.531Z,35.80
2022-09-09T13:18:02.033Z,40.50
2022-09-09T13:34:59.238Z,39.40
2022-09-09T13:51:51.872Z,39.50
2022-09-09T14:08:42.329Z,43.00
2022-09-09T14:25:31.052Z,36.20
2022-09-09T14:42:19.110Z,36.20
2022-09-09T14:59:07.717Z,34.90
2022-09-09T15:15:56.870Z,38.90
2022-09-09T15:32:46.153Z,35.80
2022-09-09T15:49:35.193Z,33.80
2022-09-09T16:06:26.821Z,35.70
2022-09-09T16:23:15.336Z,31.20
2022-09-09T16:40:04.693Z,29.00
2022-09-09T16:56:55.107Z,30.60
2022-09-09T17:13:47.872Z,28.60
2022-09-09T17:30:38.686Z,29.00
2022-09-09T17:47:27.714Z,28.80
2022-09-09T18:04:18.413Z,30.90
2022-09-09T18:21:08.673Z,28.20
2022-09-09T18:37:58.782Z,34.50
2022-09-09T18:54:48.610Z,27.60
2022-09-09T19:11:38.767Z,25.30
2022-09-09T19:28:27.869Z,22.30
2022-09-09T19:45:16.585Z,19.10
2022-09-09T20:02:07.433Z,19.60
2022-09-09T20:18:57.719Z,15.60
2022-09-09T20:35:46.804Z,16.00
2022-09-09T20:52:35.857Z,18.10
2022-09-09T21:09:24.882Z,20.00
2022-09-09T21:26:13.773Z,16.60
2022-09-09T21:43:04.599Z,15.40
2022-09-09T21:59:54.357Z,13.80
2022-09-09T22:16:42.424Z,15.80
2022-09-09T22:33:30.944Z,12.70
2022-09-09T22:50:22.169Z,13.20
2022-09-09T23:07:12.055Z,12.90
2022-09-09T23:24:03.344Z,12.90
2022-09-09T23:40:52.136Z,12.30
2022-09-09T23:57:40.528Z,10.90
